^^
Grace C. Lehan Memorial Weather Station Historical Data
Daily Summary for January 21, 2022 Units:  Both    English   Metric
Daily Weekly Monthly Yearly
  High: Low: Average:
Temperature: 18.9 °F /  -7.3 °C 13.1 °F /  -10.5 °C 15.5 °F /  -9.2 °C
Dew Point: 8.7 °F /  -12.9 °C 3.1 °F /  -16.1 °C 5.7 °F /  -14.6 °C
Humidity: 66.3% 63.1% 65%
Wind Speed: 7.9mph /  12.7km/h - 4.9mph /  7.9km/h
Wind Gust: 15mph /  24.1km/h - -
Wind- - NW
Pressure: 30.48 in /  1032.1 hPa 30.39 in /  1029 hPa -
Precipitation: 0.00 in /  0 mm    
 
 
Tabular Data for January 21, 2022
Time Temperature Dew Point Pressure Wind Wind Speed Wind Gust Humidity Rainfall Rate (Hourly) solar
00:04 18.9 °F /  -7.3 °C 8.7 °F /  -12.9 °C 30.40in /  1029.3hPa NW 7.3mph /  11.7km/h 13mph /  20.9km/h 64% 0.00in /  0mm 0 W/m2
00:09 18.7 °F /  -7.4 °C 8.6 °F /  -13 °C 30.40in /  1029.3hPa NW 4.6mph /  7.4km/h 13mph /  20.9km/h 64% 0.00in /  0mm 0 W/m2
00:14 18.6 °F /  -7.4 °C 8.5 °F /  -13.1 °C 30.40in /  1029.3hPa NW 4.9mph /  7.9km/h 13mph /  20.9km/h 64% 0.00in /  0mm 0 W/m2
00:19 18.5 °F /  -7.5 °C 8.6 °F /  -13 °C 30.40in /  1029.3hPa NW 5.2mph /  8.4km/h 13mph /  20.9km/h 64.8% 0.00in /  0mm 0 W/m2
00:24 18.3 °F /  -7.6 °C 8.6 °F /  -13 °C 30.40in /  1029.3hPa NW 1.9mph /  3.1km/h 13mph /  20.9km/h 65% 0.00in /  0mm 0 W/m2
00:29 18.2 °F /  -7.7 °C 8.5 °F /  -13.1 °C 30.39in /  1029hPa NNW 2.6mph /  4.2km/h 13mph /  20.9km/h 65.3% 0.00in /  0mm 0 W/m2
00:34 18.1 °F /  -7.7 °C 8.3 °F /  -13.2 °C 30.39in /  1029hPa NW 1.4mph /  2.3km/h 13mph /  20.9km/h 65% 0.00in /  0mm 0 W/m2
00:39 17.9 °F /  -7.8 °C 8.4 °F /  -13.1 °C 30.39in /  1029hPa NNW 4.2mph /  6.8km/h 10mph /  16.1km/h 65.7% 0.00in /  0mm 0 W/m2
00:44 17.8 °F /  -7.9 °C 8.1 °F /  -13.3 °C 30.40in /  1029.3hPa NW 6.9mph /  11.1km/h 14mph /  22.5km/h 65.2% 0.00in /  0mm 0 W/m2
00:49 17.7 °F /  -7.9 °C 7.9 °F /  -13.4 °C 30.40in /  1029.3hPa NW 5.9mph /  9.5km/h 14mph /  22.5km/h 65% 0.00in /  0mm 0 W/m2
00:54 17.6 °F /  -8 °C 7.8 °F /  -13.4 °C 30.40in /  1029.3hPa NW 6.1mph /  9.8km/h 14mph /  22.5km/h 65% 0.00in /  0mm 0 W/m2
00:59 17.5 °F /  -8.1 °C 7.7 °F /  -13.5 °C 30.40in /  1029.3hPa NW 5.1mph /  8.2km/h 14mph /  22.5km/h 65% 0.00in /  0mm 0 W/m2
01:04 17.3 °F /  -8.2 °C 7.6 °F /  -13.6 °C 30.40in /  1029.3hPa NW 6.6mph /  10.6km/h 14mph /  22.5km/h 65% 0.00in /  0mm 0 W/m2
01:09 17.2 °F /  -8.2 °C 7.6 °F /  -13.6 °C 30.40in /  1029.3hPa NW 6.9mph /  11.1km/h 15mph /  24.1km/h 65.5% 0.00in /  0mm 0 W/m2
01:14 17.1 °F /  -8.3 °C 7.5 °F /  -13.6 °C 30.40in /  1029.3hPa NW 6.3mph /  10.1km/h 15mph /  24.1km/h 65.4% 0.00in /  0mm 0 W/m2
01:19 16.9 °F /  -8.4 °C 7.2 °F /  -13.8 °C 30.40in /  1029.3hPa NW 5.6mph /  9km/h 15mph /  24.1km/h 65% 0.00in /  0mm 0 W/m2
01:24 16.8 °F /  -8.4 °C 7.3 °F /  -13.7 °C 30.40in /  1029.3hPa NW 3.6mph /  5.8km/h 15mph /  24.1km/h 65.5% 0.00in /  0mm 0 W/m2
01:29 16.7 °F /  -8.5 °C 7.4 °F /  -13.7 °C 30.40in /  1029.3hPa NW 3mph /  4.8km/h 15mph /  24.1km/h 66% 0.00in /  0mm 0 W/m2
01:34 16.6 °F /  -8.6 °C 7.3 °F /  -13.7 °C 30.41in /  1029.7hPa NW 5.6mph /  9km/h 15mph /  24.1km/h 66% 0.00in /  0mm 0 W/m2
01:39 16.6 °F /  -8.6 °C 7.2 °F /  -13.8 °C 30.41in /  1029.7hPa NW 5.3mph /  8.5km/h 13mph /  20.9km/h 66% 0.00in /  0mm 0 W/m2
01:44 16.5 °F /  -8.6 °C 7.2 °F /  -13.8 °C 30.41in /  1029.7hPa NW 3.9mph /  6.3km/h 13mph /  20.9km/h 66.2% 0.00in /  0mm 0 W/m2
01:49 16.4 °F /  -8.7 °C 7.1 °F /  -13.8 °C 30.41in /  1029.7hPa NNW 6mph /  9.7km/h 13mph /  20.9km/h 66.3% 0.00in /  0mm 0 W/m2
01:54 16.3 °F /  -8.7 °C 6.9 °F /  -13.9 °C 30.41in /  1029.7hPa NNW 6.5mph /  10.5km/h 14mph /  22.5km/h 66% 0.00in /  0mm 0 W/m2
01:59 16.2 °F /  -8.8 °C 6.7 °F /  -14.1 °C 30.41in /  1029.7hPa NNW 4.2mph /  6.8km/h 14mph /  22.5km/h 65.7% 0.00in /  0mm 0 W/m2
02:04 16.1 °F /  -8.8 °C 6.8 °F /  -14 °C 30.41in /  1029.7hPa NW 4.5mph /  7.2km/h 14mph /  22.5km/h 66% 0.00in /  0mm 0 W/m2
02:09 16 °F /  -8.9 °C 6.7 °F /  -14.1 °C 30.41in /  1029.7hPa NW 4.6mph /  7.4km/h 15mph /  24.1km/h 66% 0.00in /  0mm 0 W/m2
02:14 16 °F /  -8.9 °C 6.6 °F /  -14.1 °C 30.41in /  1029.7hPa NW 7mph /  11.3km/h 15mph /  24.1km/h 66% 0.00in /  0mm 0 W/m2
02:19 15.9 °F /  -8.9 °C 6.6 °F /  -14.1 °C 30.42in /  1030hPa NNW 5.2mph /  8.4km/h 15mph /  24.1km/h 66% 0.00in /  0mm 0 W/m2
02:24 15.8 °F /  -9 °C 6.3 °F /  -14.3 °C 30.42in /  1030hPa NNW 4.9mph /  7.9km/h 15mph /  24.1km/h 65.5% 0.00in /  0mm 0 W/m2
02:29 15.7 °F /  -9.1 °C 6.4 °F /  -14.2 °C 30.42in /  1030hPa NW 3mph /  4.8km/h 15mph /  24.1km/h 65.8% 0.00in /  0mm 0 W/m2
02:34 15.7 °F /  -9.1 °C 6 °F /  -14.4 °C 30.42in /  1030hPa NW 4.5mph /  7.2km/h 15mph /  24.1km/h 65% 0.00in /  0mm 0 W/m2
02:39 15.6 °F /  -9.1 °C 6 °F /  -14.4 °C 30.42in /  1030hPa NW 5.2mph /  8.4km/h 13mph /  20.9km/h 65% 0.00in /  0mm 0 W/m2
02:44 15.5 °F /  -9.2 °C 5.8 °F /  -14.6 °C 30.42in /  1030hPa NNW 6.8mph /  10.9km/h 15mph /  24.1km/h 64.8% 0.00in /  0mm 0 W/m2
02:49 15.5 °F /  -9.2 °C 5.6 °F /  -14.7 °C 30.42in /  1030hPa NNW 6.5mph /  10.5km/h 15mph /  24.1km/h 64.2% 0.00in /  0mm 0 W/m2
02:54 15.4 °F /  -9.2 °C 5.7 °F /  -14.6 °C 30.42in /  1030hPa NW 5.6mph /  9km/h 15mph /  24.1km/h 65% 0.00in /  0mm 0 W/m2
02:59 15.3 °F /  -9.3 °C 5.7 °F /  -14.6 °C 30.42in /  1030hPa NNW 6mph /  9.7km/h 15mph /  24.1km/h 65% 0.00in /  0mm 0 W/m2
03:04 15.3 °F /  -9.3 °C 5.3 °F /  -14.8 °C 30.43in /  1030.4hPa NNW 5.3mph /  8.5km/h 15mph /  24.1km/h 64.1% 0.00in /  0mm 0 W/m2
03:09 15.2 °F /  -9.3 °C 5.2 °F /  -14.9 °C 30.42in /  1030hPa NW 7.4mph /  11.9km/h 15mph /  24.1km/h 64% 0.00in /  0mm 0 W/m2
03:14 15.2 °F /  -9.3 °C 5.2 °F /  -14.9 °C 30.42in /  1030hPa NNW 2.9mph /  4.7km/h 15mph /  24.1km/h 64% 0.00in /  0mm 0 W/m2
03:19 15.1 °F /  -9.4 °C 5.4 °F /  -14.8 °C 30.42in /  1030hPa NNW 4.9mph /  7.9km/h 15mph /  24.1km/h 64.9% 0.00in /  0mm 0 W/m2
03:24 15 °F /  -9.4 °C 5.1 °F /  -14.9 °C 30.42in /  1030hPa NW 4.3mph /  6.9km/h 15mph /  24.1km/h 64.1% 0.00in /  0mm 0 W/m2
03:29 14.9 °F /  -9.5 °C 4.9 °F /  -15.1 °C 30.42in /  1030hPa NW 7.9mph /  12.7km/h 15mph /  24.1km/h 64% 0.00in /  0mm 0 W/m2
03:34 14.8 °F /  -9.6 °C 4.8 °F /  -15.1 °C 30.42in /  1030hPa NNW 3.7mph /  6km/h 15mph /  24.1km/h 64% 0.00in /  0mm 0 W/m2
03:39 14.8 °F /  -9.6 °C 4.8 °F /  -15.1 °C 30.42in /  1030hPa NW 6.6mph /  10.6km/h 13mph /  20.9km/h 64% 0.00in /  0mm 0 W/m2
03:44 14.7 °F /  -9.6 °C 4.7 °F /  -15.2 °C 30.42in /  1030hPa NNW 4.3mph /  6.9km/h 15mph /  24.1km/h 64% 0.00in /  0mm 0 W/m2
03:49 14.6 °F /  -9.7 °C 4.7 °F /  -15.2 °C 30.42in /  1030hPa NW 4.8mph /  7.7km/h 15mph /  24.1km/h 64% 0.00in /  0mm 0 W/m2
03:54 14.6 °F /  -9.7 °C 4.6 °F /  -15.2 °C 30.42in /  1030hPa NW 4.2mph /  6.8km/h 15mph /  24.1km/h 64% 0.00in /  0mm 0 W/m2
03:59 14.5 °F /  -9.7 °C 4.5 °F /  -15.3 °C 30.43in /  1030.4hPa NW 4.2mph /  6.8km/h 15mph /  24.1km/h 64% 0.00in /  0mm 0 W/m2
04:00 14.4 °F /  -9.8 °C 4.5 °F /  -15.3 °C 30.43in /  1030.4hPa NW 3mph /  4.8km/h 15mph /  24.1km/h 64% 0.00in /  0mm 0 W/m2
04:09 14.3 °F /  -9.8 °C 4.4 °F /  -15.3 °C 30.44in /  1030.7hPa NW 5.2mph /  8.4km/h 10mph /  16.1km/h 64% 0.00in /  0mm 0 W/m2
04:14 14.2 °F /  -9.9 °C 4.2 °F /  -15.4 °C 30.44in /  1030.7hPa NW 2.5mph /  4km/h 11mph /  17.7km/h 63.6% 0.00in /  0mm 0 W/m2
04:19 14.1 °F /  -9.9 °C 4.2 °F /  -15.4 °C 30.44in /  1030.7hPa NNW 5.5mph /  8.9km/h 11mph /  17.7km/h 63.9% 0.00in /  0mm 0 W/m2
04:24 14 °F /  -10 °C 3.8 °F /  -15.7 °C 30.44in /  1030.7hPa NW 5.3mph /  8.5km/h 15mph /  24.1km/h 63.1% 0.00in /  0mm 0 W/m2
04:29 14 °F /  -10 °C 4.2 °F /  -15.4 °C 30.44in /  1030.7hPa NNW 3.1mph /  5km/h 15mph /  24.1km/h 64.5% 0.00in /  0mm 0 W/m2
04:34 13.9 °F /  -10.1 °C 4 °F /  -15.6 °C 30.44in /  1030.7hPa NW 4.3mph /  6.9km/h 15mph /  24.1km/h 64% 0.00in /  0mm 0 W/m2
04:39 13.9 °F /  -10.1 °C 4 °F /  -15.6 °C 30.44in /  1030.7hPa NNW 3.6mph /  5.8km/h 12mph /  19.3km/h 64% 0.00in /  0mm 0 W/m2
04:44 13.8 °F /  -10.1 °C 3.9 °F /  -15.6 °C 30.44in /  1030.7hPa NW 3.8mph /  6.1km/h 12mph /  19.3km/h 64% 0.00in /  0mm 0 W/m2
04:49 13.7 °F /  -10.2 °C 3.8 °F /  -15.7 °C 30.44in /  1030.7hPa NW 4.8mph /  7.7km/h 12mph /  19.3km/h 64% 0.00in /  0mm 0 W/m2
04:54 13.7 °F /  -10.2 °C 3.8 °F /  -15.7 °C 30.44in /  1030.7hPa NW 4.5mph /  7.2km/h 12mph /  19.3km/h 64% 0.00in /  0mm 0 W/m2
04:59 13.6 °F /  -10.2 °C 3.7 °F /  -15.7 °C 30.45in /  1031hPa NNW 3.6mph /  5.8km/h 12mph /  19.3km/h 64% 0.00in /  0mm 0 W/m2
05:04 13.6 °F /  -10.2 °C 3.7 °F /  -15.7 °C 30.45in /  1031hPa NW 4.6mph /  7.4km/h 12mph /  19.3km/h 64% 0.00in /  0mm 0 W/m2
05:09 13.5 °F /  -10.3 °C 3.6 °F /  -15.8 °C 30.45in /  1031hPa NW 4.9mph /  7.9km/h 14mph /  22.5km/h 64% 0.00in /  0mm 0 W/m2
05:14 13.5 °F /  -10.3 °C 3.6 °F /  -15.8 °C 30.45in /  1031hPa NNW 5.8mph /  9.3km/h 14mph /  22.5km/h 64% 0.00in /  0mm 0 W/m2
05:19 13.5 °F /  -10.3 °C 3.3 °F /  -15.9 °C 30.45in /  1031hPa NNW 4.6mph /  7.4km/h 14mph /  22.5km/h 63.2% 0.00in /  0mm 0 W/m2
05:24 13.4 °F /  -10.3 °C 3.4 °F /  -15.9 °C 30.45in /  1031hPa NW 3.7mph /  6km/h 14mph /  22.5km/h 63.7% 0.00in /  0mm 0 W/m2
05:29 13.4 °F /  -10.3 °C 3.5 °F /  -15.8 °C 30.46in /  1031.4hPa NNW 4.5mph /  7.2km/h 14mph /  22.5km/h 64% 0.00in /  0mm 0 W/m2
05:34 13.4 °F /  -10.3 °C 3.2 °F /  -16 °C 30.46in /  1031.4hPa NNW 5.3mph /  8.5km/h 14mph /  22.5km/h 63.1% 0.00in /  0mm 0 W/m2
05:39 13.4 °F /  -10.3 °C 3.2 °F /  -16 °C 30.47in /  1031.7hPa NNW 4.6mph /  7.4km/h 13mph /  20.9km/h 63.3% 0.00in /  0mm 0 W/m2
05:44 13.3 °F /  -10.4 °C 3.3 °F /  -15.9 °C 30.47in /  1031.7hPa NNW 5.7mph /  9.2km/h 14mph /  22.5km/h 63.7% 0.00in /  0mm 0 W/m2
05:49 13.2 °F /  -10.4 °C 3.3 °F /  -15.9 °C 30.47in /  1031.7hPa NNW 6.7mph /  10.8km/h 14mph /  22.5km/h 64% 0.00in /  0mm 0 W/m2
05:54 13.2 °F /  -10.4 °C 3.1 °F /  -16.1 °C 30.48in /  1032.1hPa NNW 4.1mph /  6.6km/h 14mph /  22.5km/h 63.5% 0.00in /  0mm 0 W/m2
05:58 13.1 °F /  -10.5 °C 3.4 °F /  -15.9 °C 30.48in /  1032.1hPa NW 2.5mph /  4km/h 14mph /  22.5km/h 64.4% 0.00in /  0mm 0 W/m2
Hartford County Weather
Compliments of Weather Underground - 2 mb